Time;durP1;ratioP1;P1;durP2;ratioP2;P2;SDS_P1;SDS_P2;PMS_P1;PMS_P2;Temp;Humidity;BMP_temperature;BMP_pressure;BME280_temperature;BME280_humidity;BME280_pressure;Samples;Min_cycle;Max_cycle;Signal;HPM_P1;HPM_P2
2022/07/08 00:01:39;;;;;;;0.10;0.10;;;;;;;;;;5050633;28;20036;-80
2022/07/08 00:04:05;;;;;;;0.13;0.13;;;;;;;;;;5050818;28;20029;-79
2022/07/08 00:06:31;;;;;;;0.10;0.10;;;;;;;;;;5051087;28;20036;-79
2022/07/08 00:08:57;;;;;;;0.10;0.10;;;;;;;;;;5055089;28;20025;-79
2022/07/08 00:11:23;;;;;;;0.10;0.10;;;;;;;;;;5054592;28;20029;-79
2022/07/08 00:13:50;;;;;;;0.10;0.10;;;;;;;;;;5054465;28;20360;-79
2022/07/08 00:16:16;;;;;;;0.15;0.15;;;;;;;;;;5054522;28;20377;-79
2022/07/08 00:18:42;;;;;;;0.10;0.10;;;;;;;;;;5054367;28;20047;-79
2022/07/08 00:21:08;;;;;;;0.10;0.10;;;;;;;;;;5054661;28;20029;-79
2022/07/08 00:23:34;;;;;;;0.10;0.10;;;;;;;;;;5054316;28;20021;-79
2022/07/08 00:26:00;;;;;;;0.10;0.10;;;;;;;;;;5053098;28;20083;-79
2022/07/08 00:28:26;;;;;;;0.10;0.10;;;;;;;;;;5054781;28;20436;-79
2022/07/08 00:30:52;;;;;;;0.10;0.10;;;;;;;;;;5052825;28;20086;-79
2022/07/08 00:33:18;;;;;;;0.10;0.10;;;;;;;;;;5054382;28;20070;-79
2022/07/08 00:35:44;;;;;;;0.10;0.10;;;;;;;;;;5054054;28;20037;-79
2022/07/08 00:38:10;;;;;;;0.10;0.10;;;;;;;;;;5054214;28;20100;-79
2022/07/08 00:40:36;;;;;;;0.10;0.10;;;;;;;;;;5052654;28;20167;-79
2022/07/08 00:43:02;;;;;;;0.10;0.10;;;;;;;;;;5052951;28;20025;-79
2022/07/08 00:45:28;;;;;;;0.10;0.10;;;;;;;;;;5053120;28;20036;-80
2022/07/08 00:47:54;;;;;;;0.10;0.10;;;;;;;;;;5053873;28;20486;-79
2022/07/08 00:50:21;;;;;;;0.10;0.10;;;;;;;;;;5054086;28;20037;-80
2022/07/08 00:52:47;;;;;;;0.10;0.10;;;;;;;;;;5053788;28;20033;-80
2022/07/08 00:55:13;;;;;;;0.10;0.10;;;;;;;;;;5052532;28;20033;-78
2022/07/08 00:57:39;;;;;;;0.10;0.10;;;;;;;;;;5052329;28;20392;-79
2022/07/08 01:00:06;;;;;;;0.10;0.10;;;;;;;;;;5052582;28;20404;-78
2022/07/08 01:02:32;;;;;;;0.10;0.10;;;;;;;;;;5053683;28;20078;-79
2022/07/08 01:04:58;;;;;;;0.10;0.10;;;;;;;;;;5052773;28;20032;-79
2022/07/08 01:07:24;;;;;;;0.10;0.10;;;;;;;;;;5053745;28;20028;-79
2022/07/08 01:09:51;;;;;;;0.10;0.10;;;;;;;;;;5052117;28;20465;-78
2022/07/08 01:12:17;;;;;;;0.10;0.10;;;;;;;;;;5053687;28;20048;-79
2022/07/08 01:14:43;;;;;;;0.10;0.10;;;;;;;;;;5053212;28;20033;-79
2022/07/08 01:17:09;;;;;;;0.10;0.10;;;;;;;;;;5053372;28;20074;-79
2022/07/08 01:19:35;;;;;;;0.10;0.10;;;;;;;;;;5051915;28;20025;-79
2022/07/08 01:22:02;;;;;;;0.10;0.10;;;;;;;;;;5052196;28;20082;-79
2022/07/08 01:24:28;;;;;;;0.10;0.10;;;;;;;;;;5053765;28;20046;-79
2022/07/08 01:26:55;;;;;;;0.10;0.10;;;;;;;;;;5051914;28;20026;-79
2022/07/08 01:29:21;;;;;;;0.10;0.10;;;;;;;;;;5052023;28;20075;-79
2022/07/08 01:31:51;;;;;;;0.10;0.10;;;;;;;;;;5053095;28;20032;-79
2022/07/08 01:34:17;;;;;;;0.10;0.10;;;;;;;;;;5053125;28;20423;-80
2022/07/08 01:36:43;;;;;;;0.10;0.10;;;;;;;;;;5051588;28;20064;-80
2022/07/08 01:39:09;;;;;;;0.10;0.10;;;;;;;;;;5053168;28;20049;-80
2022/07/08 01:41:35;;;;;;;0.10;0.10;;;;;;;;;;5051544;28;20503;-80
2022/07/08 01:44:01;;;;;;;0.10;0.10;;;;;;;;;;5053070;28;20035;-79
2022/07/08 01:46:26;;;;;;;0.10;0.10;;;;;;;;;;5053289;28;20424;-80
2022/07/08 01:48:52;;;;;;;0.10;0.10;;;;;;;;;;5052743;28;20079;-79
2022/07/08 01:51:18;;;;;;;0.10;0.10;;;;;;;;;;5052681;28;20421;-79
2022/07/08 01:53:44;;;;;;;0.10;0.10;;;;;;;;;;5052549;28;20025;-79
2022/07/08 01:56:10;;;;;;;0.10;0.10;;;;;;;;;;5052786;28;20111;-79
2022/07/08 01:58:36;;;;;;;0.10;0.10;;;;;;;;;;5051218;28;20431;-79
2022/07/08 02:01:02;;;;;;;0.10;0.10;;;;;;;;;;5052912;28;20397;-79
2022/07/08 02:03:28;;;;;;;0.10;0.10;;;;;;;;;;5053030;28;20029;-79
2022/07/08 02:05:54;;;;;;;0.03;0.03;;;;;;;;;;5051038;28;20021;-79
2022/07/08 02:08:23;;;;;;;0.10;0.10;;;;;;;;;;5052630;28;20041;-79
2022/07/08 02:13:33;;;;;;;0.10;0.10;;;;;;;;;;5052562;28;20059;-79
2022/07/08 02:16:00;;;;;;;0.10;0.10;;;;;;;;;;5051404;28;20120;-79
2022/07/08 02:18:26;;;;;;;0.10;0.10;;;;;;;;;;5052683;28;20043;-79
2022/07/08 02:20:52;;;;;;;0.10;0.10;;;;;;;;;;5050790;28;20028;-80
2022/07/08 02:23:18;;;;;;;0.10;0.10;;;;;;;;;;5052300;28;20389;-79
2022/07/08 02:25:44;;;;;;;0.10;0.10;;;;;;;;;;5050762;28;20071;-79
2022/07/08 02:28:10;;;;;;;0.10;0.10;;;;;;;;;;5051247;28;20445;-79
2022/07/08 02:30:36;;;;;;;0.10;0.10;;;;;;;;;;5051198;28;20056;-79
2022/07/08 02:33:02;;;;;;;0.20;0.20;;;;;;;;;;5050733;28;20021;-79
2022/07/08 02:35:28;;;;;;;0.10;0.10;;;;;;;;;;5052230;28;20029;-79
2022/07/08 02:37:54;;;;;;;0.10;0.10;;;;;;;;;;5050569;28;20025;-78
2022/07/08 02:40:20;;;;;;;0.08;0.08;;;;;;;;;;5052105;28;20052;-79
2022/07/08 02:42:46;;;;;;;0.10;0.10;;;;;;;;;;5051718;28;20086;-79
2022/07/08 02:45:12;;;;;;;0.10;0.10;;;;;;;;;;5050657;28;20037;-79
2022/07/08 02:47:38;;;;;;;0.10;0.10;;;;;;;;;;5050280;28;20025;-79
2022/07/08 02:50:05;;;;;;;0.10;0.10;;;;;;;;;;5051708;28;20037;-79
2022/07/08 02:52:31;;;;;;;0.10;0.10;;;;;;;;;;5051584;28;20079;-78
2022/07/08 02:54:57;;;;;;;0.10;0.10;;;;;;;;;;5051955;28;20024;-78
2022/07/08 02:57:23;;;;;;;0.10;0.10;;;;;;;;;;5050401;28;20029;-79
2022/07/08 02:59:49;;;;;;;0.10;0.10;;;;;;;;;;5051336;28;20017;-79
2022/07/08 03:02:15;;;;;;;0.17;0.17;;;;;;;;;;5051544;28;20032;-79
2022/07/08 03:04:41;;;;;;;0.10;0.10;;;;;;;;;;5050013;28;20389;-79
2022/07/08 03:07:08;;;;;;;0.10;0.10;;;;;;;;;;5050253;28;20159;-79
2022/07/08 03:09:34;;;;;;;0.10;0.10;;;;;;;;;;5051208;28;20036;-79
2022/07/08 03:12:00;;;;;;;0.10;0.10;;;;;;;;;;5050150;28;20032;-79
2022/07/08 03:14:26;;;;;;;0.10;0.10;;;;;;;;;;5051621;28;20029;-79
2022/07/08 03:16:52;;;;;;;0.10;0.10;;;;;;;;;;5051082;28;20040;-79
2022/07/08 03:19:18;;;;;;;0.10;0.10;;;;;;;;;;5049995;28;20049;-79
2022/07/08 03:21:44;;;;;;;0.10;0.10;;;;;;;;;;5051048;28;20029;-79
2022/07/08 03:24:10;;;;;;;0.10;0.10;;;;;;;;;;5051258;28;20462;-79
2022/07/08 03:26:36;;;;;;;0.00;0.00;;;;;;;;;;5049728;28;20029;-79
2022/07/08 03:29:02;;;;;;;0.10;0.10;;;;;;;;;;5049924;28;20021;-79
2022/07/08 03:31:28;;;;;;;0.20;0.20;;;;;;;;;;5051425;28;20036;-79
2022/07/08 03:33:54;;;;;;;0.10;0.10;;;;;;;;;;5049642;28;20021;-79
2022/07/08 03:36:20;;;;;;;0.10;0.10;;;;;;;;;;5051069;28;20056;-80
2022/07/08 03:38:46;;;;;;;0.10;0.10;;;;;;;;;;5050840;28;20028;-80
2022/07/08 03:41:24;;;;;;;0.10;0.10;;;;;;;;;;5049768;28;20094;-79
2022/07/08 03:43:51;;;;;;;0.10;0.10;;;;;;;;;;5050789;28;20049;-79
2022/07/08 03:46:17;;;;;;;0.10;0.10;;;;;;;;;;5051015;28;20075;-80
2022/07/08 03:48:43;;;;;;;0.10;0.10;;;;;;;;;;5050928;28;20036;-79
2022/07/08 03:51:10;;;;;;;0.10;0.10;;;;;;;;;;5050775;28;20029;-79
2022/07/08 03:53:36;;;;;;;0.10;0.10;;;;;;;;;;5050713;28;20021;-79
2022/07/08 03:56:03;;;;;;;0.10;0.10;;;;;;;;;;5050860;28;20382;-79
2022/07/08 03:58:29;;;;;;;0.10;0.10;;;;;;;;;;5050111;28;20512;-79
2022/07/08 04:00:55;;;;;;;0.10;0.10;;;;;;;;;;5051188;28;20040;-79
2022/07/08 04:03:21;;;;;;;0.03;0.03;;;;;;;;;;5050846;28;20474;-79
2022/07/08 04:05:47;;;;;;;0.10;0.10;;;;;;;;;;5050635;28;20029;-79
2022/07/08 04:08:13;;;;;;;0.10;0.10;;;;;;;;;;5049602;28;20061;-79
2022/07/08 04:10:39;;;;;;;0.10;0.10;;;;;;;;;;5050440;28;20026;-79
2022/07/08 04:13:05;;;;;;;0.10;0.10;;;;;;;;;;5050735;28;20013;-79
2022/07/08 04:15:31;;;;;;;0.20;0.20;;;;;;;;;;5049140;28;20390;-79
2022/07/08 04:17:57;;;;;;;0.10;0.10;;;;;;;;;;5051065;28;20044;-79
2022/07/08 04:20:23;;;;;;;0.10;0.10;;;;;;;;;;5050681;28;20463;-79
2022/07/08 04:22:49;;;;;;;0.10;0.10;;;;;;;;;;5050423;28;20028;-80
2022/07/08 04:25:15;;;;;;;0.10;0.10;;;;;;;;;;5050600;28;20099;-80
2022/07/08 04:27:41;;;;;;;0.10;0.10;;;;;;;;;;5050249;28;20025;-79
2022/07/08 04:30:07;;;;;;;0.10;0.10;;;;;;;;;;5050680;28;20303;-80
2022/07/08 04:32:33;;;;;;;0.10;0.10;;;;;;;;;;5049079;28;20060;-79
2022/07/08 04:34:59;;;;;;;0.10;0.10;;;;;;;;;;5049495;28;20021;-79
2022/07/08 04:37:26;;;;;;;0.10;0.10;;;;;;;;;;5049518;28;20036;-79
2022/07/08 04:39:53;;;;;;;0.10;0.10;;;;;;;;;;5050255;28;20021;-79
2022/07/08 04:42:19;;;;;;;0.10;0.10;;;;;;;;;;5050538;28;20037;-79
2022/07/08 04:44:45;;;;;;;0.10;0.10;;;;;;;;;;5050256;28;20060;-79
2022/07/08 04:47:11;;;;;;;0.10;0.10;;;;;;;;;;5050436;28;20055;-79
2022/07/08 04:49:37;;;;;;;0.10;0.10;;;;;;;;;;5050105;28;20025;-79
2022/07/08 04:52:06;;;;;;;0.10;0.10;;;;;;;;;;5050509;28;20029;-79
2022/07/08 04:54:32;;;;;;;0.20;0.20;;;;;;;;;;5052183;28;20055;-79
2022/07/08 04:56:58;;;;;;;0.10;0.10;;;;;;;;;;5054274;28;20082;-80
2022/07/08 04:59:24;;;;;;;0.10;0.10;;;;;;;;;;5053954;28;20100;-79
2022/07/08 05:01:51;;;;;;;0.10;0.10;;;;;;;;;;5065539;28;20436;-79
2022/07/08 05:04:17;;;;;;;0.10;0.10;;;;;;;;;;5072563;28;20442;-79
2022/07/08 05:06:43;;;;;;;0.10;0.10;;;;;;;;;;5072328;28;20025;-79
2022/07/08 05:09:10;;;;;;;0.10;0.10;;;;;;;;;;5073706;28;20024;-79
2022/07/08 05:11:36;;;;;;;0.10;0.10;;;;;;;;;;5060003;28;20554;-79
2022/07/08 05:14:02;;;;;;;0.10;0.10;;;;;;;;;;5053716;28;20053;-79
2022/07/08 05:16:28;;;;;;;0.10;0.10;;;;;;;;;;5053878;28;20479;-79
2022/07/08 05:18:54;;;;;;;0.10;0.10;;;;;;;;;;5053375;28;20017;-79
2022/07/08 05:21:21;;;;;;;0.10;0.10;;;;;;;;;;5053627;28;20025;-80
2022/07/08 05:23:47;;;;;;;0.10;0.10;;;;;;;;;;5063718;28;20116;-79
2022/07/08 05:26:13;;;;;;;0.10;0.10;;;;;;;;;;5073445;28;20461;-79
2022/07/08 05:28:39;;;;;;;0.10;0.10;;;;;;;;;;5073146;28;20029;-78
2022/07/08 05:31:05;;;;;;;0.10;0.10;;;;;;;;;;5073168;28;20020;-79
2022/07/08 05:33:31;;;;;;;0.10;0.10;;;;;;;;;;5071787;28;20021;-78
2022/07/08 05:35:57;;;;;;;0.10;0.10;;;;;;;;;;5072152;28;20094;-79
2022/07/08 05:38:23;;;;;;;0.10;0.10;;;;;;;;;;5071595;28;20031;-78
2022/07/08 05:40:49;;;;;;;0.10;0.10;;;;;;;;;;5072910;28;20457;-79
2022/07/08 05:43:15;;;;;;;0.10;0.10;;;;;;;;;;5073079;28;20061;-79
2022/07/08 05:45:41;;;;;;;0.10;0.10;;;;;;;;;;5072847;28;20074;-79
2022/07/08 05:48:07;;;;;;;0.10;0.10;;;;;;;;;;5071720;28;20033;-79
2022/07/08 05:50:33;;;;;;;0.10;0.10;;;;;;;;;;5071282;28;20131;-79
2022/07/08 05:52:59;;;;;;;0.10;0.10;;;;;;;;;;5072761;28;20044;-79
2022/07/08 05:55:25;;;;;;;0.10;0.10;;;;;;;;;;5072892;28;20028;-79
2022/07/08 05:57:51;;;;;;;0.10;0.10;;;;;;;;;;5072663;28;20029;-79
2022/07/08 06:00:19;;;;;;;0.10;0.10;;;;;;;;;;5071149;28;20511;-78
2022/07/08 06:02:45;;;;;;;0.10;0.10;;;;;;;;;;5072498;28;20029;-79
2022/07/08 06:05:12;;;;;;;0.10;0.10;;;;;;;;;;5070357;28;20078;-79
2022/07/08 06:07:38;;;;;;;0.10;0.10;;;;;;;;;;5072226;28;20036;-79
2022/07/08 06:10:04;;;;;;;0.10;0.10;;;;;;;;;;5072625;28;20024;-79
2022/07/08 06:12:30;;;;;;;0.10;0.10;;;;;;;;;;5071035;28;20029;-78
2022/07/08 06:14:56;;;;;;;0.10;0.10;;;;;;;;;;5070899;28;20040;-79
2022/07/08 06:17:22;;;;;;;0.10;0.10;;;;;;;;;;5072382;28;20025;-79
2022/07/08 06:19:48;;;;;;;0.10;0.10;;;;;;;;;;5071861;28;20024;-80
2022/07/08 06:22:14;;;;;;;0.10;0.10;;;;;;;;;;5072095;28;20032;-79
2022/07/08 06:24:40;;;;;;;0.10;0.10;;;;;;;;;;5072074;28;20082;-78
2022/07/08 06:27:06;;;;;;;0.10;0.10;;;;;;;;;;5072232;28;20527;-79
2022/07/08 06:29:32;;;;;;;0.10;0.10;;;;;;;;;;5071763;28;20159;-78
2022/07/08 06:31:59;;;;;;;0.10;0.10;;;;;;;;;;5072432;28;20024;-79
2022/07/08 06:34:25;;;;;;;0.10;0.10;;;;;;;;;;5071862;28;20438;-79
2022/07/08 06:36:51;;;;;;;0.10;0.10;;;;;;;;;;5071815;28;20029;-79
2022/07/08 06:39:17;;;;;;;0.10;0.10;;;;;;;;;;5071505;28;20024;-78
2022/07/08 06:41:43;;;;;;;0.10;0.10;;;;;;;;;;5069955;28;20522;-78
2022/07/08 06:44:09;;;;;;;0.10;0.10;;;;;;;;;;5072132;28;20029;-79
2022/07/08 06:46:35;;;;;;;0.10;0.10;;;;;;;;;;5071578;28;20020;-78
2022/07/08 06:49:01;;;;;;;0.10;0.10;;;;;;;;;;5070449;28;20501;-78
2022/07/08 06:51:27;;;;;;;0.10;0.10;;;;;;;;;;5071656;28;20120;-79
2022/07/08 06:56:39;;;;;;;0.10;0.10;;;;;;;;;;5071373;28;20040;-76
2022/07/08 06:59:08;;;;;;;0.10;0.10;;;;;;;;;;5071155;28;20514;-77
2022/07/08 07:01:34;;;;;;;0.10;0.10;;;;;;;;;;5062952;28;20389;-78
2022/07/08 07:04:01;;;;;;;0.10;0.10;;;;;;;;;;5062532;28;20029;-77
2022/07/08 07:06:27;;;;;;;0.50;0.50;;;;;;;;;;5071292;28;20043;-77
2022/07/08 07:08:53;;;;;;;0.10;0.10;;;;;;;;;;5071283;28;20135;-78
2022/07/08 07:11:19;;;;;;;0.10;0.10;;;;;;;;;;5071339;28;20016;-80
2022/07/08 07:13:47;;;;;;;0.65;0.65;;;;;;;;;;5071272;28;20032;-83
2022/07/08 07:16:13;;;;;;;2.47;1.80;;;;;;;;;;5071068;28;20036;-82
2022/07/08 07:18:39;;;;;;;3.53;3.33;;;;;;;;;;5071177;28;20492;-78
